sensor_id;sensor_type;location;lat;lon;timestamp;temperature;humidity
2889;DHT22;1453;42.708;23.282;2024-03-29T00:01:23;12.30;75.60
2889;DHT22;1453;42.708;23.282;2024-03-29T00:03:50;12.10;74.70
2889;DHT22;1453;42.708;23.282;2024-03-29T00:06:16;12.30;75.40
2889;DHT22;1453;42.708;23.282;2024-03-29T00:08:43;12.30;74.70
2889;DHT22;1453;42.708;23.282;2024-03-29T00:11:09;12.30;74.40
2889;DHT22;1453;42.708;23.282;2024-03-29T00:13:34;12.50;74.20
2889;DHT22;1453;42.708;23.282;2024-03-29T00:16:00;12.60;73.70
2889;DHT22;1453;42.708;23.282;2024-03-29T00:18:26;12.40;74.30
2889;DHT22;1453;42.708;23.282;2024-03-29T00:20:52;12.20;75.20
2889;DHT22;1453;42.708;23.282;2024-03-29T00:23:18;12.10;75.80
2889;DHT22;1453;42.708;23.282;2024-03-29T00:25:44;11.90;77.00
2889;DHT22;1453;42.708;23.282;2024-03-29T00:28:10;11.90;78.00
2889;DHT22;1453;42.708;23.282;2024-03-29T00:30:36;11.80;79.40
2889;DHT22;1453;42.708;23.282;2024-03-29T00:33:02;11.80;80.00
2889;DHT22;1453;42.708;23.282;2024-03-29T00:35:28;11.90;79.00
2889;DHT22;1453;42.708;23.282;2024-03-29T00:37:54;11.90;79.30
2889;DHT22;1453;42.708;23.282;2024-03-29T00:40:20;11.80;79.70
2889;DHT22;1453;42.708;23.282;2024-03-29T00:42:46;11.80;79.20
2889;DHT22;1453;42.708;23.282;2024-03-29T00:45:12;11.60;80.50
2889;DHT22;1453;42.708;23.282;2024-03-29T00:47:38;11.80;79.70
2889;DHT22;1453;42.708;23.282;2024-03-29T00:50:04;11.70;79.40
2889;DHT22;1453;42.708;23.282;2024-03-29T00:52:30;11.50;82.50
2889;DHT22;1453;42.708;23.282;2024-03-29T00:54:56;11.40;83.20
2889;DHT22;1453;42.708;23.282;2024-03-29T00:57:22;11.70;81.40
2889;DHT22;1453;42.708;23.282;2024-03-29T00:59:48;11.60;81.20
2889;DHT22;1453;42.708;23.282;2024-03-29T01:02:13;12.00;80.00
2889;DHT22;1453;42.708;23.282;2024-03-29T01:04:39;11.80;80.30
2889;DHT22;1453;42.708;23.282;2024-03-29T01:07:06;12.00;79.60
2889;DHT22;1453;42.708;23.282;2024-03-29T01:09:32;12.10;78.90
2889;DHT22;1453;42.708;23.282;2024-03-29T01:11:58;11.70;80.20
2889;DHT22;1453;42.708;23.282;2024-03-29T01:14:24;11.90;80.00
2889;DHT22;1453;42.708;23.282;2024-03-29T01:16:50;11.80;79.60
2889;DHT22;1453;42.708;23.282;2024-03-29T01:19:16;11.90;79.40
2889;DHT22;1453;42.708;23.282;2024-03-29T01:21:42;11.90;78.10
2889;DHT22;1453;42.708;23.282;2024-03-29T01:24:07;12.10;78.30
2889;DHT22;1453;42.708;23.282;2024-03-29T01:26:33;12.10;77.60
2889;DHT22;1453;42.708;23.282;2024-03-29T01:29:00;12.10;77.80
2889;DHT22;1453;42.708;23.282;2024-03-29T01:31:26;12.10;77.70
2889;DHT22;1453;42.708;23.282;2024-03-29T01:33:52;12.10;77.80
2889;DHT22;1453;42.708;23.282;2024-03-29T01:36:18;12.10;78.00
2889;DHT22;1453;42.708;23.282;2024-03-29T01:38:43;12.10;78.00
2889;DHT22;1453;42.708;23.282;2024-03-29T01:41:12;12.00;78.90
2889;DHT22;1453;42.708;23.282;2024-03-29T01:43:38;12.10;78.50
2889;DHT22;1453;42.708;23.282;2024-03-29T01:46:05;12.00;77.70
2889;DHT22;1453;42.708;23.282;2024-03-29T01:48:34;12.10;78.40
2889;DHT22;1453;42.708;23.282;2024-03-29T01:51:01;12.10;78.20
2889;DHT22;1453;42.708;23.282;2024-03-29T01:53:27;11.90;78.60
2889;DHT22;1453;42.708;23.282;2024-03-29T01:55:54;12.00;79.00
2889;DHT22;1453;42.708;23.282;2024-03-29T01:58:20;12.00;79.40
2889;DHT22;1453;42.708;23.282;2024-03-29T02:00:56;11.90;79.40
2889;DHT22;1453;42.708;23.282;2024-03-29T02:03:23;12.00;80.40
2889;DHT22;1453;42.708;23.282;2024-03-29T02:05:50;11.90;79.90
2889;DHT22;1453;42.708;23.282;2024-03-29T02:08:16;12.00;80.00
2889;DHT22;1453;42.708;23.282;2024-03-29T02:10:43;12.10;79.90
2889;DHT22;1453;42.708;23.282;2024-03-29T02:13:11;12.10;80.00
2889;DHT22;1453;42.708;23.282;2024-03-29T02:15:39;11.90;81.30
2889;DHT22;1453;42.708;23.282;2024-03-29T02:18:06;11.90;80.50
2889;DHT22;1453;42.708;23.282;2024-03-29T02:20:33;11.80;81.10
2889;DHT22;1453;42.708;23.282;2024-03-29T02:23:11;11.90;81.70
2889;DHT22;1453;42.708;23.282;2024-03-29T02:25:39;11.90;81.90
2889;DHT22;1453;42.708;23.282;2024-03-29T02:28:05;11.90;81.70
2889;DHT22;1453;42.708;23.282;2024-03-29T02:30:32;11.90;81.70
2889;DHT22;1453;42.708;23.282;2024-03-29T02:32:58;11.30;84.80
2889;DHT22;1453;42.708;23.282;2024-03-29T02:35:25;11.40;87.70
2889;DHT22;1453;42.708;23.282;2024-03-29T02:37:52;11.60;86.50
2889;DHT22;1453;42.708;23.282;2024-03-29T02:40:19;11.50;87.70
2889;DHT22;1453;42.708;23.282;2024-03-29T02:42:47;11.50;87.50
2889;DHT22;1453;42.708;23.282;2024-03-29T02:45:13;11.50;88.00
2889;DHT22;1453;42.708;23.282;2024-03-29T02:47:39;11.50;88.20
2889;DHT22;1453;42.708;23.282;2024-03-29T02:50:08;11.50;89.20
2889;DHT22;1453;42.708;23.282;2024-03-29T02:52:35;11.30;90.60
2889;DHT22;1453;42.708;23.282;2024-03-29T02:55:01;11.00;92.60
2889;DHT22;1453;42.708;23.282;2024-03-29T02:57:27;10.80;94.90
2889;DHT22;1453;42.708;23.282;2024-03-29T02:59:52;10.70;96.40
2889;DHT22;1453;42.708;23.282;2024-03-29T03:02:18;10.60;98.30
2889;DHT22;1453;42.708;23.282;2024-03-29T03:04:44;10.60;99.90
2889;DHT22;1453;42.708;23.282;2024-03-29T03:07:10;10.50;99.90
2889;DHT22;1453;42.708;23.282;2024-03-29T03:09:55;10.50;99.90
2889;DHT22;1453;42.708;23.282;2024-03-29T03:12:39;10.50;99.90
2889;DHT22;1453;42.708;23.282;2024-03-29T03:15:05;10.40;99.90
2889;DHT22;1453;42.708;23.282;2024-03-29T03:17:32;10.40;99.90
2889;DHT22;1453;42.708;23.282;2024-03-29T03:19:58;10.50;99.90
2889;DHT22;1453;42.708;23.282;2024-03-29T03:22:24;10.60;99.90
2889;DHT22;1453;42.708;23.282;2024-03-29T03:24:51;10.50;99.90
2889;DHT22;1453;42.708;23.282;2024-03-29T03:27:17;10.30;99.90
2889;DHT22;1453;42.708;23.282;2024-03-29T03:29:43;10.40;99.90
2889;DHT22;1453;42.708;23.282;2024-03-29T03:32:09;10.40;99.90
2889;DHT22;1453;42.708;23.282;2024-03-29T03:34:35;10.20;99.90
2889;DHT22;1453;42.708;23.282;2024-03-29T03:37:01;10.30;99.90
2889;DHT22;1453;42.708;23.282;2024-03-29T03:39:26;10.20;99.90
2889;DHT22;1453;42.708;23.282;2024-03-29T03:41:52;10.40;99.90
2889;DHT22;1453;42.708;23.282;2024-03-29T03:44:18;10.60;99.90
2889;DHT22;1453;42.708;23.282;2024-03-29T03:46:44;10.40;99.90
2889;DHT22;1453;42.708;23.282;2024-03-29T03:49:10;10.40;99.90
2889;DHT22;1453;42.708;23.282;2024-03-29T03:51:36;10.70;99.90
2889;DHT22;1453;42.708;23.282;2024-03-29T03:54:02;10.60;99.90
2889;DHT22;1453;42.708;23.282;2024-03-29T03:56:28;10.50;99.90
2889;DHT22;1453;42.708;23.282;2024-03-29T03:58:54;10.30;99.90
2889;DHT22;1453;42.708;23.282;2024-03-29T04:01:19;10.50;99.90
2889;DHT22;1453;42.708;23.282;2024-03-29T04:03:46;10.30;99.90
2889;DHT22;1453;42.708;23.282;2024-03-29T04:06:12;10.40;99.90
2889;DHT22;1453;42.708;23.282;2024-03-29T04:08:38;10.40;99.90
2889;DHT22;1453;42.708;23.282;2024-03-29T04:11:04;10.40;99.90
2889;DHT22;1453;42.708;23.282;2024-03-29T04:13:30;10.40;99.90
2889;DHT22;1453;42.708;23.282;2024-03-29T04:16:06;10.40;99.90
2889;DHT22;1453;42.708;23.282;2024-03-29T04:18:35;10.40;99.90
2889;DHT22;1453;42.708;23.282;2024-03-29T04:21:03;10.40;99.90
2889;DHT22;1453;42.708;23.282;2024-03-29T04:23:29;10.60;99.90
2889;DHT22;1453;42.708;23.282;2024-03-29T04:25:57;10.60;99.90
2889;DHT22;1453;42.708;23.282;2024-03-29T04:28:24;10.60;99.90
2889;DHT22;1453;42.708;23.282;2024-03-29T04:30:58;10.60;99.90
2889;DHT22;1453;42.708;23.282;2024-03-29T04:33:26;10.70;99.90
2889;DHT22;1453;42.708;23.282;2024-03-29T04:36:02;10.90;99.90
2889;DHT22;1453;42.708;23.282;2024-03-29T04:38:30;11.20;99.90
2889;DHT22;1453;42.708;23.282;2024-03-29T04:40:58;11.20;99.70
2889;DHT22;1453;42.708;23.282;2024-03-29T04:43:26;11.10;99.80
2889;DHT22;1453;42.708;23.282;2024-03-29T04:46:03;11.00;99.90
2889;DHT22;1453;42.708;23.282;2024-03-29T04:48:35;11.00;99.90
2889;DHT22;1453;42.708;23.282;2024-03-29T04:51:01;10.90;99.90
2889;DHT22;1453;42.708;23.282;2024-03-29T04:53:27;11.00;99.90
2889;DHT22;1453;42.708;23.282;2024-03-29T04:55:55;11.20;99.90
2889;DHT22;1453;42.708;23.282;2024-03-29T04:58:25;11.20;99.90
2889;DHT22;1453;42.708;23.282;2024-03-29T05:00:52;11.40;98.30
2889;DHT22;1453;42.708;23.282;2024-03-29T05:03:18;11.30;99.00
2889;DHT22;1453;42.708;23.282;2024-03-29T05:05:45;11.30;99.40
2889;DHT22;1453;42.708;23.282;2024-03-29T05:08:12;11.20;99.90
2889;DHT22;1453;42.708;23.282;2024-03-29T05:10:39;11.20;99.90
2889;DHT22;1453;42.708;23.282;2024-03-29T05:13:06;11.30;99.70
2889;DHT22;1453;42.708;23.282;2024-03-29T05:15:32;11.60;98.80
2889;DHT22;1453;42.708;23.282;2024-03-29T05:17:58;11.70;97.70
2889;DHT22;1453;42.708;23.282;2024-03-29T05:20:24;11.90;96.00
2889;DHT22;1453;42.708;23.282;2024-03-29T05:22:50;12.00;96.00
2889;DHT22;1453;42.708;23.282;2024-03-29T05:25:16;12.00;95.90
2889;DHT22;1453;42.708;23.282;2024-03-29T05:27:42;12.10;95.70
2889;DHT22;1453;42.708;23.282;2024-03-29T05:30:08;12.50;94.90
2889;DHT22;1453;42.708;23.282;2024-03-29T05:32:39;12.50;94.50
2889;DHT22;1453;42.708;23.282;2024-03-29T05:35:05;12.70;93.50
2889;DHT22;1453;42.708;23.282;2024-03-29T05:37:31;12.90;92.70
2889;DHT22;1453;42.708;23.282;2024-03-29T05:39:57;13.00;93.00
2889;DHT22;1453;42.708;23.282;2024-03-29T05:42:26;13.30;91.30
2889;DHT22;1453;42.708;23.282;2024-03-29T05:44:53;13.20;91.40
2889;DHT22;1453;42.708;23.282;2024-03-29T05:47:19;13.40;90.80
2889;DHT22;1453;42.708;23.282;2024-03-29T05:49:45;13.30;90.50
2889;DHT22;1453;42.708;23.282;2024-03-29T05:52:12;13.40;90.10
2889;DHT22;1453;42.708;23.282;2024-03-29T05:54:41;13.50;90.70
2889;DHT22;1453;42.708;23.282;2024-03-29T05:57:10;13.60;89.70
2889;DHT22;1453;42.708;23.282;2024-03-29T05:59:37;13.70;89.20
2889;DHT22;1453;42.708;23.282;2024-03-29T06:02:04;13.80;88.60
2889;DHT22;1453;42.708;23.282;2024-03-29T06:04:30;13.90;88.80
2889;DHT22;1453;42.708;23.282;2024-03-29T06:07:01;13.90;89.20
2889;DHT22;1453;42.708;23.282;2024-03-29T06:09:28;13.90;88.80
2889;DHT22;1453;42.708;23.282;2024-03-29T06:11:57;14.10;88.10
2889;DHT22;1453;42.708;23.282;2024-03-29T06:14:23;14.30;87.00
2889;DHT22;1453;42.708;23.282;2024-03-29T06:17:08;14.20;87.00
2889;DHT22;1453;42.708;23.282;2024-03-29T06:19:54;14.30;86.60
2889;DHT22;1453;42.708;23.282;2024-03-29T06:22:22;14.50;84.20
2889;DHT22;1453;42.708;23.282;2024-03-29T06:24:50;14.70;83.10
2889;DHT22;1453;42.708;23.282;2024-03-29T06:27:19;14.80;82.90
2889;DHT22;1453;42.708;23.282;2024-03-29T06:29:50;15.70;80.00
2889;DHT22;1453;42.708;23.282;2024-03-29T06:32:16;16.30;76.10
2889;DHT22;1453;42.708;23.282;2024-03-29T06:34:44;17.30;74.70
2889;DHT22;1453;42.708;23.282;2024-03-29T06:37:11;18.30;70.50
2889;DHT22;1453;42.708;23.282;2024-03-29T06:39:37;18.90;66.30
2889;DHT22;1453;42.708;23.282;2024-03-29T06:42:03;18.60;65.30
2889;DHT22;1453;42.708;23.282;2024-03-29T06:44:32;18.70;65.60
2889;DHT22;1453;42.708;23.282;2024-03-29T06:46:58;19.20;64.40
2889;DHT22;1453;42.708;23.282;2024-03-29T06:49:24;19.50;64.90
2889;DHT22;1453;42.708;23.282;2024-03-29T06:51:50;19.70;63.20
2889;DHT22;1453;42.708;23.282;2024-03-29T06:54:16;19.40;63.60
2889;DHT22;1453;42.708;23.282;2024-03-29T06:56:42;20.00;63.50
2889;DHT22;1453;42.708;23.282;2024-03-29T06:59:08;20.40;61.30
2889;DHT22;1453;42.708;23.282;2024-03-29T07:01:34;20.00;60.70
2889;DHT22;1453;42.708;23.282;2024-03-29T07:04:01;19.40;61.70
2889;DHT22;1453;42.708;23.282;2024-03-29T07:06:27;19.50;62.80
2889;DHT22;1453;42.708;23.282;2024-03-29T07:08:53;20.80;60.80
2889;DHT22;1453;42.708;23.282;2024-03-29T07:11:19;21.20;59.30
2889;DHT22;1453;42.708;23.282;2024-03-29T07:13:45;20.70;59.30
2889;DHT22;1453;42.708;23.282;2024-03-29T07:16:11;19.80;59.70
2889;DHT22;1453;42.708;23.282;2024-03-29T07:18:37;20.40;60.00
2889;DHT22;1453;42.708;23.282;2024-03-29T07:21:03;21.00;59.60
2889;DHT22;1453;42.708;23.282;2024-03-29T07:23:29;21.00;58.00
2889;DHT22;1453;42.708;23.282;2024-03-29T07:25:59;21.60;57.70
2889;DHT22;1453;42.708;23.282;2024-03-29T07:28:27;21.50;57.70
2889;DHT22;1453;42.708;23.282;2024-03-29T07:30:53;21.80;57.60
2889;DHT22;1453;42.708;23.282;2024-03-29T07:33:20;21.30;57.50
2889;DHT22;1453;42.708;23.282;2024-03-29T07:35:52;22.00;58.30
2889;DHT22;1453;42.708;23.282;2024-03-29T07:38:19;23.30;57.50
2889;DHT22;1453;42.708;23.282;2024-03-29T07:40:46;22.50;55.70
2889;DHT22;1453;42.708;23.282;2024-03-29T07:43:13;22.30;56.60
2889;DHT22;1453;42.708;23.282;2024-03-29T07:45:40;22.50;55.30
2889;DHT22;1453;42.708;23.282;2024-03-29T07:48:18;22.70;56.50
2889;DHT22;1453;42.708;23.282;2024-03-29T07:50:45;22.20;55.60
2889;DHT22;1453;42.708;23.282;2024-03-29T07:53:12;22.90;55.20
2889;DHT22;1453;42.708;23.282;2024-03-29T07:55:39;21.60;55.10
2889;DHT22;1453;42.708;23.282;2024-03-29T07:58:06;22.60;56.00
2889;DHT22;1453;42.708;23.282;2024-03-29T08:00:34;24.10;55.10
2889;DHT22;1453;42.708;23.282;2024-03-29T08:03:00;24.00;54.00
2889;DHT22;1453;42.708;23.282;2024-03-29T08:05:27;23.90;53.30
2889;DHT22;1453;42.708;23.282;2024-03-29T08:07:53;23.50;53.90
2889;DHT22;1453;42.708;23.282;2024-03-29T08:10:20;23.90;53.80
2889;DHT22;1453;42.708;23.282;2024-03-29T08:12:46;23.90;53.00
2889;DHT22;1453;42.708;23.282;2024-03-29T08:15:12;24.00;53.50
2889;DHT22;1453;42.708;23.282;2024-03-29T08:17:38;24.90;53.80
2889;DHT22;1453;42.708;23.282;2024-03-29T08:20:05;24.90;52.50
2889;DHT22;1453;42.708;23.282;2024-03-29T08:22:31;24.60;53.10
2889;DHT22;1453;42.708;23.282;2024-03-29T08:25:00;24.50;52.40
2889;DHT22;1453;42.708;23.282;2024-03-29T08:27:27;24.50;52.50
2889;DHT22;1453;42.708;23.282;2024-03-29T08:29:53;24.60;52.20
2889;DHT22;1453;42.708;23.282;2024-03-29T08:32:19;22.90;52.50
2889;DHT22;1453;42.708;23.282;2024-03-29T08:34:46;22.50;53.60
2889;DHT22;1453;42.708;23.282;2024-03-29T08:37:12;21.90;54.70
2889;DHT22;1453;42.708;23.282;2024-03-29T08:39:37;23.20;56.40
2889;DHT22;1453;42.708;23.282;2024-03-29T08:42:04;24.20;53.10
2889;DHT22;1453;42.708;23.282;2024-03-29T08:44:32;25.00;52.90
2889;DHT22;1453;42.708;23.282;2024-03-29T08:46:58;25.10;53.70
2889;DHT22;1453;42.708;23.282;2024-03-29T08:49:29;25.60;52.10
2889;DHT22;1453;42.708;23.282;2024-03-29T08:51:59;25.50;52.60
2889;DHT22;1453;42.708;23.282;2024-03-29T08:54:27;25.20;52.30
2889;DHT22;1453;42.708;23.282;2024-03-29T08:56:53;23.70;52.20
2889;DHT22;1453;42.708;23.282;2024-03-29T08:59:19;22.00;52.50
2889;DHT22;1453;42.708;23.282;2024-03-29T09:01:46;21.90;54.00
2889;DHT22;1453;42.708;23.282;2024-03-29T09:04:15;22.60;52.90
2889;DHT22;1453;42.708;23.282;2024-03-29T09:06:41;24.20;52.30
2889;DHT22;1453;42.708;23.282;2024-03-29T09:09:08;26.10;51.90
2889;DHT22;1453;42.708;23.282;2024-03-29T09:11:34;26.70;49.80
2889;DHT22;1453;42.708;23.282;2024-03-29T09:14:00;26.90;49.70
2889;DHT22;1453;42.708;23.282;2024-03-29T09:16:27;27.00;47.30
2889;DHT22;1453;42.708;23.282;2024-03-29T09:18:54;26.50;46.80
2889;DHT22;1453;42.708;23.282;2024-03-29T09:21:21;27.00;46.60
2889;DHT22;1453;42.708;23.282;2024-03-29T09:23:47;27.70;47.00
2889;DHT22;1453;42.708;23.282;2024-03-29T09:26:15;26.50;47.00
2889;DHT22;1453;42.708;23.282;2024-03-29T09:28:41;27.10;48.20
2889;DHT22;1453;42.708;23.282;2024-03-29T09:31:07;28.20;47.80
2889;DHT22;1453;42.708;23.282;2024-03-29T09:33:33;28.00;45.20
2889;DHT22;1453;42.708;23.282;2024-03-29T09:35:59;26.80;44.70
2889;DHT22;1453;42.708;23.282;2024-03-29T09:38:26;27.30;46.30
2889;DHT22;1453;42.708;23.282;2024-03-29T09:41:03;27.80;46.00
2889;DHT22;1453;42.708;23.282;2024-03-29T09:43:32;28.10;45.50
2889;DHT22;1453;42.708;23.282;2024-03-29T09:45:59;27.50;46.10
2889;DHT22;1453;42.708;23.282;2024-03-29T09:48:26;27.10;46.50
2889;DHT22;1453;42.708;23.282;2024-03-29T09:50:54;28.00;45.50
2889;DHT22;1453;42.708;23.282;2024-03-29T09:53:21;27.50;44.80
2889;DHT22;1453;42.708;23.282;2024-03-29T09:55:49;26.70;45.90
2889;DHT22;1453;42.708;23.282;2024-03-29T09:58:15;27.10;46.00
2889;DHT22;1453;42.708;23.282;2024-03-29T10:00:41;26.90;46.70
2889;DHT22;1453;42.708;23.282;2024-03-29T10:03:08;28.00;45.80
2889;DHT22;1453;42.708;23.282;2024-03-29T10:05:35;28.30;45.40
2889;DHT22;1453;42.708;23.282;2024-03-29T10:08:04;29.00;45.30
2889;DHT22;1453;42.708;23.282;2024-03-29T10:10:33;29.30;44.90
2889;DHT22;1453;42.708;23.282;2024-03-29T10:12:59;29.50;44.80
2889;DHT22;1453;42.708;23.282;2024-03-29T10:15:25;29.90;44.80
2889;DHT22;1453;42.708;23.282;2024-03-29T10:17:53;30.10;44.40
2889;DHT22;1453;42.708;23.282;2024-03-29T10:20:19;29.20;44.90
2889;DHT22;1453;42.708;23.282;2024-03-29T10:22:47;29.00;45.30
2889;DHT22;1453;42.708;23.282;2024-03-29T10:25:14;29.10;45.30
2889;DHT22;1453;42.708;23.282;2024-03-29T10:27:41;29.40;46.00
2889;DHT22;1453;42.708;23.282;2024-03-29T10:30:08;29.20;44.70
2889;DHT22;1453;42.708;23.282;2024-03-29T10:32:38;30.00;44.50
2889;DHT22;1453;42.708;23.282;2024-03-29T10:35:07;29.80;44.50
2889;DHT22;1453;42.708;23.282;2024-03-29T10:37:34;29.60;45.20
2889;DHT22;1453;42.708;23.282;2024-03-29T10:40:13;30.50;45.00
2889;DHT22;1453;42.708;23.282;2024-03-29T10:42:43;30.60;43.30
2889;DHT22;1453;42.708;23.282;2024-03-29T10:45:10;30.60;44.50
2889;DHT22;1453;42.708;23.282;2024-03-29T10:47:36;31.20;43.50
2889;DHT22;1453;42.708;23.282;2024-03-29T10:50:02;31.40;43.30
2889;DHT22;1453;42.708;23.282;2024-03-29T10:52:31;30.10;43.80
2889;DHT22;1453;42.708;23.282;2024-03-29T10:54:57;29.70;44.50
2889;DHT22;1453;42.708;23.282;2024-03-29T10:57:24;30.10;44.60
2889;DHT22;1453;42.708;23.282;2024-03-29T11:00:02;30.80;43.50
2889;DHT22;1453;42.708;23.282;2024-03-29T11:02:49;31.20;43.50
2889;DHT22;1453;42.708;23.282;2024-03-29T11:05:18;30.90;43.10
2889;DHT22;1453;42.708;23.282;2024-03-29T11:07:45;31.30;43.70
2889;DHT22;1453;42.708;23.282;2024-03-29T11:10:15;32.10;42.90
2889;DHT22;1453;42.708;23.282;2024-03-29T11:12:54;31.40;42.80
2889;DHT22;1453;42.708;23.282;2024-03-29T11:15:30;30.10;44.30
2889;DHT22;1453;42.708;23.282;2024-03-29T11:17:57;30.90;44.40
2889;DHT22;1453;42.708;23.282;2024-03-29T11:20:27;30.70;43.50
2889;DHT22;1453;42.708;23.282;2024-03-29T11:23:05;31.20;43.30
2889;DHT22;1453;42.708;23.282;2024-03-29T11:25:40;31.10;42.90
2889;DHT22;1453;42.708;23.282;2024-03-29T11:28:12;31.40;45.60
2889;DHT22;1453;42.708;23.282;2024-03-29T11:30:48;31.70;43.40
2889;DHT22;1453;42.708;23.282;2024-03-29T11:36:23;31.60;43.20
2889;DHT22;1453;42.708;23.282;2024-03-29T11:38:52;31.30;43.00
2889;DHT22;1453;42.708;23.282;2024-03-29T11:41:27;31.50;43.40
2889;DHT22;1453;42.708;23.282;2024-03-29T11:43:55;30.20;43.90
2889;DHT22;1453;42.708;23.282;2024-03-29T11:46:22;30.90;43.90
2889;DHT22;1453;42.708;23.282;2024-03-29T11:48:49;30.40;44.20
2889;DHT22;1453;42.708;23.282;2024-03-29T11:51:19;31.60;43.70
2889;DHT22;1453;42.708;23.282;2024-03-29T11:53:48;32.10;43.00
2889;DHT22;1453;42.708;23.282;2024-03-29T11:56:16;31.20;43.10
2889;DHT22;1453;42.708;23.282;2024-03-29T11:58:42;30.90;43.20
2889;DHT22;1453;42.708;23.282;2024-03-29T12:01:08;30.90;43.50
2889;DHT22;1453;42.708;23.282;2024-03-29T12:03:41;30.90;43.70
2889;DHT22;1453;42.708;23.282;2024-03-29T12:06:08;31.60;43.80
2889;DHT22;1453;42.708;23.282;2024-03-29T12:08:39;32.10;42.60
2889;DHT22;1453;42.708;23.282;2024-03-29T12:11:05;32.20;42.40
2889;DHT22;1453;42.708;23.282;2024-03-29T12:13:32;32.70;42.30
2889;DHT22;1453;42.708;23.282;2024-03-29T12:15:58;32.30;41.90
2889;DHT22;1453;42.708;23.282;2024-03-29T12:18:25;31.80;42.30
2889;DHT22;1453;42.708;23.282;2024-03-29T12:20:53;30.80;42.00
2889;DHT22;1453;42.708;23.282;2024-03-29T12:23:21;30.90;42.00
2889;DHT22;1453;42.708;23.282;2024-03-29T12:25:49;31.30;42.10
2889;DHT22;1453;42.708;23.282;2024-03-29T12:28:17;31.30;41.80
2889;DHT22;1453;42.708;23.282;2024-03-29T12:30:47;32.10;42.40
2889;DHT22;1453;42.708;23.282;2024-03-29T12:33:18;31.80;42.00
2889;DHT22;1453;42.708;23.282;2024-03-29T12:35:49;32.20;41.10
2889;DHT22;1453;42.708;23.282;2024-03-29T12:38:19;30.80;40.10
2889;DHT22;1453;42.708;23.282;2024-03-29T12:40:47;29.80;40.40
2889;DHT22;1453;42.708;23.282;2024-03-29T12:43:15;30.20;40.90
2889;DHT22;1453;42.708;23.282;2024-03-29T12:45:45;31.40;40.80
2889;DHT22;1453;42.708;23.282;2024-03-29T12:48:13;30.90;40.60
2889;DHT22;1453;42.708;23.282;2024-03-29T12:50:42;30.30;40.90
2889;DHT22;1453;42.708;23.282;2024-03-29T12:53:10;31.10;41.00
2889;DHT22;1453;42.708;23.282;2024-03-29T12:55:47;31.30;40.80
2889;DHT22;1453;42.708;23.282;2024-03-29T12:58:14;31.50;39.90
2889;DHT22;1453;42.708;23.282;2024-03-29T13:00:43;30.90;40.40
2889;DHT22;1453;42.708;23.282;2024-03-29T13:03:09;30.20;40.60
2889;DHT22;1453;42.708;23.282;2024-03-29T13:05:36;29.80;41.90
2889;DHT22;1453;42.708;23.282;2024-03-29T13:08:08;29.90;41.10
2889;DHT22;1453;42.708;23.282;2024-03-29T13:10:36;29.70;41.20
2889;DHT22;1453;42.708;23.282;2024-03-29T13:13:06;29.70;40.60
2889;DHT22;1453;42.708;23.282;2024-03-29T13:15:34;29.30;39.60
2889;DHT22;1453;42.708;23.282;2024-03-29T13:18:02;28.30;39.00
2889;DHT22;1453;42.708;23.282;2024-03-29T13:20:30;27.60;39.20
2889;DHT22;1453;42.708;23.282;2024-03-29T13:22:58;25.90;39.30
2889;DHT22;1453;42.708;23.282;2024-03-29T13:25:24;25.00;41.10
2889;DHT22;1453;42.708;23.282;2024-03-29T13:27:52;25.40;41.40
2889;DHT22;1453;42.708;23.282;2024-03-29T13:30:21;26.60;41.10
2889;DHT22;1453;42.708;23.282;2024-03-29T13:32:48;27.60;39.20
2889;DHT22;1453;42.708;23.282;2024-03-29T13:35:15;26.20;38.90
2889;DHT22;1453;42.708;23.282;2024-03-29T13:37:42;26.10;38.50
2889;DHT22;1453;42.708;23.282;2024-03-29T13:40:12;26.60;38.50
2889;DHT22;1453;42.708;23.282;2024-03-29T13:42:38;26.70;38.40
2889;DHT22;1453;42.708;23.282;2024-03-29T13:45:05;26.30;39.50
2889;DHT22;1453;42.708;23.282;2024-03-29T13:47:39;28.10;39.50
2889;DHT22;1453;42.708;23.282;2024-03-29T13:50:07;28.90;38.50
2889;DHT22;1453;42.708;23.282;2024-03-29T13:52:35;29.30;38.10
2889;DHT22;1453;42.708;23.282;2024-03-29T13:55:02;29.60;38.00
2889;DHT22;1453;42.708;23.282;2024-03-29T13:57:31;29.70;37.90
2889;DHT22;1453;42.708;23.282;2024-03-29T13:59:58;30.00;36.60
2889;DHT22;1453;42.708;23.282;2024-03-29T14:02:24;29.20;36.20
2889;DHT22;1453;42.708;23.282;2024-03-29T14:04:53;28.60;37.60
2889;DHT22;1453;42.708;23.282;2024-03-29T14:07:19;29.20;36.60
2889;DHT22;1453;42.708;23.282;2024-03-29T14:09:45;29.80;36.80
2889;DHT22;1453;42.708;23.282;2024-03-29T14:12:12;28.40;36.10
2889;DHT22;1453;42.708;23.282;2024-03-29T14:14:40;26.80;38.80
2889;DHT22;1453;42.708;23.282;2024-03-29T14:17:09;27.10;38.10
2889;DHT22;1453;42.708;23.282;2024-03-29T14:19:35;28.00;37.40
2889;DHT22;1453;42.708;23.282;2024-03-29T14:22:02;28.60;37.70
2889;DHT22;1453;42.708;23.282;2024-03-29T14:24:29;29.70;37.60
2889;DHT22;1453;42.708;23.282;2024-03-29T14:26:59;29.20;37.10
2889;DHT22;1453;42.708;23.282;2024-03-29T14:29:25;29.20;37.10
2889;DHT22;1453;42.708;23.282;2024-03-29T14:31:51;29.60;36.80
2889;DHT22;1453;42.708;23.282;2024-03-29T14:34:21;29.00;36.60
2889;DHT22;1453;42.708;23.282;2024-03-29T14:36:47;28.90;37.10
2889;DHT22;1453;42.708;23.282;2024-03-29T14:39:14;28.60;37.10
2889;DHT22;1453;42.708;23.282;2024-03-29T14:41:41;27.90;37.20
2889;DHT22;1453;42.708;23.282;2024-03-29T14:44:07;27.70;37.30
2889;DHT22;1453;42.708;23.282;2024-03-29T14:46:34;27.90;37.60
2889;DHT22;1453;42.708;23.282;2024-03-29T14:49:03;28.40;37.70
2889;DHT22;1453;42.708;23.282;2024-03-29T14:51:33;28.20;37.60
2889;DHT22;1453;42.708;23.282;2024-03-29T14:54:00;28.20;38.20
2889;DHT22;1453;42.708;23.282;2024-03-29T14:56:29;28.50;38.00
2889;DHT22;1453;42.708;23.282;2024-03-29T14:59:05;29.10;37.90
2889;DHT22;1453;42.708;23.282;2024-03-29T15:01:32;29.40;38.10
2889;DHT22;1453;42.708;23.282;2024-03-29T15:03:58;30.20;38.40
2889;DHT22;1453;42.708;23.282;2024-03-29T15:06:24;30.70;38.00
2889;DHT22;1453;42.708;23.282;2024-03-29T15:08:53;30.30;39.20
2889;DHT22;1453;42.708;23.282;2024-03-29T15:11:20;30.40;39.50
2889;DHT22;1453;42.708;23.282;2024-03-29T15:13:47;29.90;40.30
2889;DHT22;1453;42.708;23.282;2024-03-29T15:16:13;28.60;40.50
2889;DHT22;1453;42.708;23.282;2024-03-29T15:18:38;28.70;41.20
2889;DHT22;1453;42.708;23.282;2024-03-29T15:21:04;29.70;40.90
2889;DHT22;1453;42.708;23.282;2024-03-29T15:23:31;30.60;40.30
2889;DHT22;1453;42.708;23.282;2024-03-29T15:25:58;30.90;39.70
2889;DHT22;1453;42.708;23.282;2024-03-29T15:28:25;30.90;39.70
2889;DHT22;1453;42.708;23.282;2024-03-29T15:31:14;30.60;39.80
2889;DHT22;1453;42.708;23.282;2024-03-29T15:33:43;30.70;40.10
2889;DHT22;1453;42.708;23.282;2024-03-29T15:36:09;30.60;39.70
2889;DHT22;1453;42.708;23.282;2024-03-29T15:38:36;30.70;39.40
2889;DHT22;1453;42.708;23.282;2024-03-29T15:41:02;31.30;39.30
2889;DHT22;1453;42.708;23.282;2024-03-29T15:43:30;30.80;39.60
2889;DHT22;1453;42.708;23.282;2024-03-29T15:45:56;30.60;38.80
2889;DHT22;1453;42.708;23.282;2024-03-29T15:48:23;29.80;39.70
2889;DHT22;1453;42.708;23.282;2024-03-29T15:50:50;29.40;40.00